createdAt,value
2023-02-13T00:02:22.126Z,3.34
2023-02-13T00:07:24.912Z,3.36
2023-02-13T00:12:27.695Z,3.36
2023-02-13T00:17:30.893Z,3.37
2023-02-13T00:22:37.341Z,3.39
2023-02-13T00:27:40.083Z,3.41
2023-02-13T00:32:42.977Z,3.42
2023-02-13T00:37:45.693Z,3.42
2023-02-13T00:42:48.417Z,3.42
2023-02-13T00:47:51.481Z,3.42
2023-02-13T00:52:54.297Z,3.43
2023-02-13T00:57:57.076Z,3.44
2023-02-13T01:02:59.800Z,3.45
2023-02-13T01:08:02.607Z,3.47
2023-02-13T01:13:06.474Z,3.48
2023-02-13T01:18:12.591Z,3.48
2023-02-13T01:23:15.321Z,3.48
2023-02-13T01:28:18.305Z,3.48
2023-02-13T01:33:22.459Z,3.49
2023-02-13T01:38:25.220Z,3.50
2023-02-13T01:43:50.289Z,3.51
2023-02-13T01:48:56.421Z,3.51
2023-02-13T01:54:13.564Z,3.53
2023-02-13T01:59:29.703Z,3.52
2023-02-13T02:04:36.096Z,3.51
2023-02-13T02:09:41.401Z,3.49
2023-02-13T02:14:44.765Z,3.51
2023-02-13T02:19:50.196Z,3.49
2023-02-13T02:25:36.726Z,3.47
2023-02-13T02:30:58.553Z,3.42
2023-02-13T02:36:37.247Z,3.41
2023-02-13T02:41:50.157Z,3.36
2023-02-13T02:47:44.138Z,3.35
2023-02-13T02:52:57.463Z,3.33
2023-02-13T02:58:47.207Z,3.31
2023-02-13T03:04:08.747Z,3.28
2023-02-13T03:09:35.448Z,3.28
2023-02-13T03:14:38.374Z,3.25
2023-02-13T03:20:09.667Z,3.24
2023-02-13T03:25:30.493Z,3.23
2023-02-13T03:31:03.988Z,3.21
2023-02-13T03:36:43.225Z,3.19
2023-02-13T03:41:51.420Z,3.17
2023-02-13T03:46:57.192Z,3.16
2023-02-13T03:52:09.399Z,3.16
2023-02-13T03:57:36.945Z,3.17
2023-02-13T04:02:50.082Z,3.17
2023-02-13T04:07:53.556Z,3.19
2023-02-13T04:13:05.143Z,3.20
2023-02-13T04:18:22.694Z,3.22
2023-02-13T04:23:25.414Z,3.24
2023-02-13T04:28:28.466Z,3.26
2023-02-13T04:33:31.269Z,3.28
2023-02-13T04:38:34.098Z,3.31
2023-02-13T04:43:37.481Z,3.32
2023-02-13T04:48:40.280Z,3.34
2023-02-13T04:53:43.000Z,3.37
2023-02-13T04:58:45.741Z,3.39
2023-02-13T05:03:48.545Z,3.41
2023-02-13T05:08:51.417Z,3.41
2023-02-13T05:13:54.319Z,3.42
2023-02-13T05:18:57.640Z,3.42
2023-02-13T05:24:00.460Z,3.42
2023-02-13T05:29:23.031Z,3.45
2023-02-13T05:34:28.071Z,3.45
2023-02-13T05:39:30.819Z,3.46
2023-02-13T05:44:33.637Z,3.46
2023-02-13T05:49:37.608Z,3.46
2023-02-13T05:54:41.236Z,3.46
2023-02-13T05:59:44.110Z,3.46
2023-02-13T06:04:46.910Z,3.48
2023-02-13T06:09:49.847Z,3.48
2023-02-13T06:14:52.610Z,3.46
2023-02-13T06:19:55.417Z,3.47
2023-02-13T06:24:58.215Z,3.48
2023-02-13T06:30:00.934Z,3.51
2023-02-13T06:35:05.570Z,3.53
2023-02-13T06:40:10.114Z,3.59
2023-02-13T06:45:14.011Z,3.61
2023-02-13T06:50:19.308Z,3.66
2023-02-13T06:55:23.717Z,3.71
2023-02-13T07:00:27.310Z,3.76
2023-02-13T07:05:30.466Z,3.82
2023-02-13T07:10:33.257Z,3.85
2023-02-13T07:15:37.415Z,3.90
2023-02-13T07:20:42.606Z,3.93
2023-02-13T07:25:45.377Z,3.99
2023-02-13T07:30:48.104Z,4.04
2023-02-13T07:35:52.603Z,4.11
2023-02-13T07:40:55.942Z,4.21
2023-02-13T07:46:02.874Z,4.32
2023-02-13T07:51:06.149Z,4.35
2023-02-13T07:56:09.992Z,4.38
2023-02-13T08:01:15.851Z,4.38
2023-02-13T08:06:20.240Z,4.39
2023-02-13T08:11:51.787Z,4.42
2023-02-13T08:16:55.306Z,4.51
2023-02-13T08:21:58.187Z,4.61
2023-02-13T08:27:00.939Z,4.73
2023-02-13T08:32:03.866Z,4.84
2023-02-13T08:37:06.657Z,4.86
2023-02-13T08:42:09.741Z,4.83
2023-02-13T08:47:13.587Z,4.79
2023-02-13T08:52:16.570Z,4.83
2023-02-13T08:57:19.422Z,4.81
2023-02-13T09:02:23.022Z,4.89
2023-02-13T09:07:28.788Z,4.96
2023-02-13T09:12:32.430Z,5.06
2023-02-13T09:17:35.341Z,5.13
2023-02-13T09:22:38.335Z,5.16
2023-02-13T09:27:43.958Z,5.28
2023-02-13T09:32:46.910Z,5.43
2023-02-13T09:37:49.838Z,5.60
2023-02-13T09:42:54.515Z,5.73
2023-02-13T09:47:58.047Z,5.86
2023-02-13T09:53:02.506Z,6.05
2023-02-13T09:58:20.701Z,6.19
2023-02-13T10:03:42.536Z,6.21
2023-02-13T10:09:26.718Z,6.25
2023-02-13T10:14:48.539Z,6.27
2023-02-13T10:19:56.996Z,6.28
2023-02-13T10:25:14.690Z,6.37
2023-02-13T10:30:23.179Z,6.39
2023-02-13T10:35:31.965Z,6.43
2023-02-13T10:40:47.167Z,6.50
2023-02-13T10:46:04.821Z,6.50
2023-02-13T10:51:36.766Z,6.36
2023-02-13T10:56:51.754Z,6.41
2023-02-13T11:02:20.641Z,6.61
2023-02-13T11:07:26.166Z,6.71
2023-02-13T11:12:34.506Z,6.77
2023-02-13T11:17:44.060Z,6.64
2023-02-13T11:22:48.008Z,6.65
2023-02-13T11:27:55.588Z,6.82
2023-02-13T11:33:05.821Z,6.79
2023-02-13T11:38:14.549Z,6.70
2023-02-13T11:43:25.255Z,6.62
2023-02-13T11:48:28.173Z,6.56
2023-02-13T11:54:35.772Z,6.56
2023-02-13T13:06:19.711Z,7.88
2023-02-13T13:11:50.235Z,7.49
2023-02-13T13:17:08.571Z,7.17
2023-02-13T13:22:23.327Z,7.06
2023-02-13T13:27:30.695Z,7.03
2023-02-13T13:32:34.502Z,6.91
2023-02-13T13:38:12.660Z,6.72
2023-02-13T13:43:22.030Z,6.53
2023-02-13T13:48:30.769Z,6.31
2023-02-13T13:53:33.624Z,6.16
2023-02-13T13:58:42.045Z,6.07
2023-02-13T14:03:47.228Z,6.06
2023-02-13T14:08:54.594Z,5.99
2023-02-13T14:13:57.937Z,5.91
2023-02-13T14:19:01.607Z,5.87
2023-02-13T14:24:12.129Z,5.85
2023-02-13T14:29:31.465Z,5.82
2023-02-13T14:34:38.472Z,5.78
2023-02-13T14:39:42.450Z,5.77
2023-02-13T14:44:49.256Z,5.69
2023-02-13T14:49:53.384Z,5.65
2023-02-13T14:55:13.721Z,5.60
2023-02-13T15:00:34.441Z,5.57
2023-02-13T15:05:38.030Z,5.53
2023-02-13T15:10:50.046Z,5.52
2023-02-13T15:16:03.724Z,5.52
2023-02-13T15:21:06.815Z,5.50
2023-02-13T15:26:18.531Z,5.46
2023-02-13T15:31:24.169Z,5.43
2023-02-13T15:36:35.411Z,5.41
2023-02-13T15:41:42.712Z,5.37
2023-02-13T15:46:48.381Z,5.31
2023-02-13T15:52:03.146Z,5.27
2023-02-13T15:57:07.308Z,5.24
2023-02-13T16:02:28.306Z,5.22
2023-02-13T16:07:31.268Z,5.20
2023-02-13T16:12:34.013Z,5.16
2023-02-13T16:17:40.086Z,5.17
2023-02-13T16:22:49.440Z,5.15
2023-02-13T16:27:56.456Z,5.15
2023-02-13T16:33:24.151Z,5.15
2023-02-13T16:38:31.869Z,5.14
2023-02-13T16:43:54.385Z,5.14
2023-02-13T16:48:59.707Z,5.12
2023-02-13T16:54:06.063Z,5.11
2023-02-13T16:59:23.082Z,5.08
2023-02-13T17:04:25.957Z,5.06
2023-02-13T17:09:28.891Z,5.06
2023-02-13T17:14:31.619Z,5.03
2023-02-13T17:19:34.343Z,5.05
2023-02-13T17:24:37.074Z,5.06
2023-02-13T17:29:39.903Z,5.01
2023-02-13T17:34:42.808Z,4.98
2023-02-13T17:39:46.565Z,4.93
2023-02-13T17:44:49.685Z,4.91
2023-02-13T17:49:55.221Z,4.86
2023-02-13T17:55:02.095Z,4.81
2023-02-13T18:00:05.919Z,4.79
2023-02-13T18:05:10.463Z,4.76
2023-02-13T18:10:23.421Z,4.71
2023-02-13T18:15:26.196Z,4.69
2023-02-13T18:20:28.967Z,4.64
2023-02-13T18:25:31.801Z,4.62
2023-02-13T18:30:34.524Z,4.58
2023-02-13T18:35:37.823Z,4.56
2023-02-13T18:40:40.953Z,4.57
2023-02-13T18:45:45.926Z,4.55
2023-02-13T18:50:48.781Z,4.55
2023-02-13T18:56:00.733Z,4.54
2023-02-13T19:01:12.429Z,4.53
2023-02-13T19:06:18.967Z,4.53
2023-02-13T19:11:24.155Z,4.51
2023-02-13T19:16:31.317Z,4.45
2023-02-13T19:21:36.785Z,4.46
2023-02-13T19:26:39.625Z,4.42
2023-02-13T19:31:42.514Z,4.40
2023-02-13T19:36:45.377Z,4.34
2023-02-13T19:41:48.082Z,4.29
2023-02-13T19:46:51.090Z,4.23
2023-02-13T19:51:53.943Z,4.17
2023-02-13T19:57:00.628Z,4.13
2023-02-13T20:02:03.778Z,4.06
2023-02-13T20:07:07.995Z,4.03
2023-02-13T20:12:10.874Z,3.99
2023-02-13T20:17:13.573Z,3.95
2023-02-13T20:22:17.090Z,3.90
2023-02-13T20:27:19.890Z,3.86
2023-02-13T20:32:22.832Z,3.82
2023-02-13T20:37:25.693Z,3.76
2023-02-13T20:42:28.462Z,3.76
2023-02-13T20:47:31.402Z,3.70
2023-02-13T20:52:34.683Z,3.64
2023-02-13T20:57:37.431Z,3.57
2023-02-13T21:02:40.217Z,3.49
2023-02-13T21:07:43.224Z,3.43
2023-02-13T21:12:46.021Z,3.38
2023-02-13T21:17:48.935Z,3.35
2023-02-13T21:22:51.642Z,3.32
2023-02-13T21:27:54.359Z,3.24
2023-02-13T21:32:57.041Z,3.17
2023-02-13T21:37:59.747Z,3.10
2023-02-13T21:43:02.471Z,3.02
2023-02-13T21:48:05.317Z,2.95
2023-02-13T21:53:08.011Z,2.85
2023-02-13T21:58:10.713Z,2.73
2023-02-13T22:03:13.424Z,2.62
2023-02-13T22:08:16.154Z,2.52
2023-02-13T22:13:18.852Z,2.43
2023-02-13T22:18:21.578Z,2.36
2023-02-13T22:23:24.518Z,2.30
2023-02-13T22:28:27.913Z,2.23
2023-02-13T22:33:30.589Z,2.15
2023-02-13T22:38:38.411Z,2.05
2023-02-13T22:43:41.970Z,1.91
2023-02-13T22:48:46.219Z,1.77
2023-02-13T22:53:49.799Z,1.60
2023-02-13T22:58:52.822Z,1.48
2023-02-13T23:03:56.375Z,1.33
2023-02-13T23:08:59.182Z,1.22
2023-02-13T23:14:02.725Z,1.09
2023-02-13T23:19:05.427Z,0.97
2023-02-13T23:24:08.183Z,0.89
2023-02-13T23:29:11.169Z,0.76
2023-02-13T23:34:13.869Z,0.64
2023-02-13T23:39:16.663Z,0.55
2023-02-13T23:44:19.674Z,0.49
2023-02-13T23:49:22.579Z,0.42
2023-02-13T23:54:26.236Z,0.38
2023-02-13T23:59:28.968Z,0.33
